Schedule Details

Flight Number: ASX306X
Departure: Dublin (EIDW) at 12:00Z
Arrival: Gdansk im. Lecha Walesy (EPGD) at 15:00Z

Weather Information
EIDW 272300Z 34002KT 9999 FEW016 BKN060 BKN250 13/12 Q1018 NOSIG
EPGD 272300Z 06004KT 020V110 CAVOK 16/15 Q1025

Schedule Frequency

Route Map